createdAt,value
2022-08-06T00:00:03.025Z,61.60
2022-08-06T00:02:25.794Z,61.70
2022-08-06T00:05:00.465Z,61.70
2022-08-06T00:07:28.441Z,61.70
2022-08-06T00:10:01.584Z,61.70
2022-08-06T00:12:32.346Z,61.80
2022-08-06T00:15:13.562Z,61.80
2022-08-06T00:17:44.523Z,61.80
2022-08-06T00:20:24.246Z,61.90
2022-08-06T00:22:59.215Z,61.90
2022-08-06T00:25:26.132Z,61.90
2022-08-06T00:27:52.982Z,62.00
2022-08-06T00:30:22.461Z,62.10
2022-08-06T00:32:51.786Z,62.30
2022-08-06T00:35:21.708Z,62.30
2022-08-06T00:37:56.903Z,62.30
2022-08-06T00:40:29.754Z,62.40
2022-08-06T00:43:05.988Z,62.40
2022-08-06T00:45:37.716Z,62.50
2022-08-06T00:48:07.253Z,62.60
2022-08-06T00:50:35.589Z,62.70
2022-08-06T00:53:05.528Z,62.80
2022-08-06T00:55:36.453Z,62.90
2022-08-06T00:58:05.797Z,62.90
2022-08-06T01:00:38.551Z,62.90
2022-08-06T01:03:07.472Z,63.00
2022-08-06T01:06:52.962Z,63.00
2022-08-06T01:08:41.584Z,63.10
2022-08-06T01:11:09.067Z,63.10
2022-08-06T01:14:01.893Z,63.20
2022-08-06T01:16:34.829Z,63.30
2022-08-06T01:19:11.550Z,63.40
2022-08-06T01:22:30.984Z,63.40
2022-08-06T01:25:46.188Z,63.50
2022-08-06T01:28:22.924Z,63.50
2022-08-06T01:31:02.500Z,63.50
2022-08-06T01:33:38.845Z,63.50
2022-08-06T01:36:10.377Z,63.50
2022-08-06T01:38:43.631Z,63.50
2022-08-06T01:41:56.565Z,63.50
2022-08-06T01:44:34.269Z,63.60
2022-08-06T01:47:16.253Z,63.60
2022-08-06T01:50:00.865Z,63.70
2022-08-06T01:52:33.696Z,63.70
2022-08-06T01:55:02.639Z,63.80
2022-08-06T01:58:19.061Z,63.90
2022-08-06T02:00:20.688Z,63.90
2022-08-06T02:03:00.787Z,63.90
2022-08-06T02:05:32.202Z,63.90
2022-08-06T02:08:36.361Z,64.00
2022-08-06T02:10:50.410Z,64.00
2022-08-06T02:13:20.554Z,64.10
2022-08-06T02:15:58.316Z,64.00
2022-08-06T02:18:35.557Z,64.20
2022-08-06T02:21:19.020Z,64.20
2022-08-06T02:23:57.194Z,64.20
2022-08-06T02:26:25.946Z,64.30
2022-08-06T02:29:01.013Z,64.40
2022-08-06T02:31:27.707Z,64.40
2022-08-06T02:34:02.799Z,64.50
2022-08-06T02:36:50.364Z,64.50
2022-08-06T02:39:51.861Z,64.60
2022-08-06T02:42:33.253Z,64.60
2022-08-06T02:45:19.165Z,64.70
2022-08-06T02:47:56.139Z,64.80
2022-08-06T02:50:36.785Z,65.00
2022-08-06T02:53:23.881Z,65.20
2022-08-06T02:55:56.826Z,65.30
2022-08-06T02:58:36.594Z,65.30
2022-08-06T03:01:09.344Z,65.40
2022-08-06T03:03:40.962Z,65.50
2022-08-06T03:06:25.520Z,65.40
2022-08-06T03:08:55.414Z,65.40
2022-08-06T03:11:24.276Z,65.50
2022-08-06T03:13:53.190Z,65.40
2022-08-06T03:16:24.060Z,65.40
2022-08-06T03:19:53.852Z,65.30
2022-08-06T03:21:45.720Z,65.20
2022-08-06T03:24:21.255Z,65.10
2022-08-06T03:26:49.251Z,65.10
2022-08-06T03:29:16.279Z,65.10
2022-08-06T03:31:44.894Z,65.10
2022-08-06T03:34:25.566Z,65.10
2022-08-06T03:36:53.588Z,65.10
2022-08-06T03:39:22.116Z,65.20
2022-08-06T03:42:08.177Z,65.30
2022-08-06T03:44:36.415Z,65.30
2022-08-06T03:47:10.439Z,65.40
2022-08-06T03:49:52.762Z,65.40
2022-08-06T03:52:27.101Z,65.40
2022-08-06T03:54:59.473Z,65.50
2022-08-06T03:57:49.918Z,65.50
2022-08-06T04:00:22.361Z,65.60
2022-08-06T04:02:57.878Z,65.60
2022-08-06T04:05:31.219Z,65.60
2022-08-06T04:08:03.601Z,65.60
2022-08-06T04:10:36.897Z,65.60
2022-08-06T04:14:03.279Z,65.70
2022-08-06T04:15:56.910Z,65.70
2022-08-06T04:18:42.203Z,65.70
2022-08-06T04:22:57.424Z,65.80
2022-08-06T04:24:09.934Z,65.90
2022-08-06T04:26:38.591Z,65.80
2022-08-06T04:29:07.960Z,65.90
2022-08-06T04:32:11.548Z,65.90
2022-08-06T04:34:28.417Z,66.00
2022-08-06T04:36:57.440Z,66.00
2022-08-06T04:39:36.999Z,66.00
2022-08-06T04:42:06.607Z,66.10
2022-08-06T04:44:34.043Z,66.10
2022-08-06T04:47:02.371Z,66.20
2022-08-06T04:50:02.189Z,66.30
2022-08-06T04:52:36.646Z,67.20
2022-08-06T04:55:24.399Z,66.40
2022-08-06T04:57:56.829Z,66.40
2022-08-06T05:00:33.782Z,66.50
2022-08-06T05:03:17.936Z,66.60
2022-08-06T05:06:20.328Z,66.70
2022-08-06T05:08:52.546Z,66.90
2022-08-06T05:11:27.574Z,67.00
2022-08-06T05:14:08.172Z,67.00
2022-08-06T05:16:39.626Z,67.10
2022-08-06T05:19:26.484Z,67.10
2022-08-06T05:22:11.592Z,67.20
2022-08-06T05:25:00.646Z,67.20
2022-08-06T05:27:54.355Z,67.20
2022-08-06T05:30:13.757Z,67.20
2022-08-06T05:32:43.340Z,67.20
2022-08-06T05:35:12.613Z,67.20
2022-08-06T05:38:02.279Z,67.20
2022-08-06T05:40:35.090Z,67.30
2022-08-06T05:43:21.222Z,67.20
2022-08-06T05:45:52.137Z,67.10
2022-08-06T05:48:29.621Z,67.20
2022-08-06T05:51:08.731Z,67.10
2022-08-06T05:54:03.264Z,67.10
2022-08-06T05:56:39.401Z,67.00
2022-08-06T05:59:16.350Z,67.00
2022-08-06T06:02:01.625Z,66.90
2022-08-06T06:04:33.679Z,66.90
2022-08-06T06:07:04.509Z,66.90
2022-08-06T06:09:56.360Z,66.70
2022-08-06T06:12:21.321Z,66.70
2022-08-06T06:14:49.621Z,66.60
2022-08-06T06:17:39.854Z,66.50
2022-08-06T06:20:58.078Z,66.40
2022-08-06T06:23:20.930Z,66.30
2022-08-06T06:26:32.957Z,66.20
2022-08-06T06:29:15.207Z,66.10
2022-08-06T06:32:08.013Z,65.80
2022-08-06T06:34:54.757Z,65.80
2022-08-06T06:38:02.715Z,65.50
2022-08-06T06:41:00.312Z,65.40
2022-08-06T06:43:57.061Z,65.30
2022-08-06T06:46:40.877Z,65.00
2022-08-06T06:50:01.020Z,64.90
2022-08-06T06:52:26.794Z,64.70
2022-08-06T06:55:11.789Z,64.60
2022-08-06T06:57:52.662Z,64.30
2022-08-06T07:00:46.526Z,64.20
2022-08-06T07:03:09.608Z,64.10
2022-08-06T07:06:06.217Z,63.90
2022-08-06T07:08:32.048Z,63.60
2022-08-06T07:11:06.306Z,64.10
2022-08-06T07:13:47.814Z,62.90
2022-08-06T07:16:34.434Z,62.70
2022-08-06T07:19:10.573Z,62.50
2022-08-06T07:21:42.282Z,62.10
2022-08-06T07:24:39.907Z,62.00
2022-08-06T07:27:00.598Z,62.00
2022-08-06T07:29:48.833Z,62.00
2022-08-06T07:32:30.849Z,61.70
2022-08-06T07:35:01.244Z,61.50
2022-08-06T07:37:43.309Z,61.30
2022-08-06T07:40:19.487Z,60.90
2022-08-06T07:42:51.656Z,60.70
2022-08-06T07:45:19.481Z,60.50
2022-08-06T07:47:55.926Z,60.30
2022-08-06T07:50:25.321Z,60.10
2022-08-06T07:52:56.060Z,59.70
2022-08-06T07:55:37.272Z,59.00
2022-08-06T07:58:08.551Z,58.90
2022-08-06T08:00:38.624Z,58.80
2022-08-06T08:03:56.626Z,58.40
2022-08-06T08:06:21.727Z,58.20
2022-08-06T08:08:51.806Z,58.10
2022-08-06T08:11:20.516Z,57.70
2022-08-06T08:14:06.028Z,57.40
2022-08-06T08:16:38.432Z,57.10
2022-08-06T08:19:35.122Z,56.80
2022-08-06T08:22:31.525Z,56.90
2022-08-06T08:24:58.133Z,56.70
2022-08-06T08:27:25.890Z,56.20
2022-08-06T08:29:56.748Z,55.20
2022-08-06T08:32:24.847Z,54.90
2022-08-06T08:34:53.522Z,54.20
2022-08-06T08:37:21.742Z,53.90
2022-08-06T08:39:48.706Z,54.30
2022-08-06T08:42:32.029Z,53.60
2022-08-06T08:45:02.096Z,54.10
2022-08-06T08:47:46.846Z,54.00
2022-08-06T08:50:21.137Z,53.60
2022-08-06T08:52:52.565Z,53.00
2022-08-06T08:57:06.268Z,52.30
2022-08-06T08:59:02.372Z,52.50
2022-08-06T09:01:00.893Z,52.70
2022-08-06T09:03:28.009Z,52.00
2022-08-06T09:05:56.810Z,51.00
2022-08-06T09:09:01.800Z,51.40
2022-08-06T09:12:02.591Z,50.10
2022-08-06T09:14:04.500Z,51.00
2022-08-06T09:16:36.218Z,49.50
2022-08-06T09:19:04.551Z,49.20
2022-08-06T09:21:32.583Z,49.50
2022-08-06T09:24:04.938Z,49.20
2022-08-06T09:26:52.817Z,49.00
2022-08-06T09:29:24.043Z,48.40
2022-08-06T09:31:59.122Z,48.10
2022-08-06T09:34:39.016Z,48.40
2022-08-06T09:37:06.698Z,47.90
2022-08-06T09:39:46.372Z,48.10
2022-08-06T09:42:48.055Z,47.90
2022-08-06T09:45:17.972Z,47.50
2022-08-06T09:47:58.859Z,47.90
2022-08-06T09:50:44.855Z,47.80
2022-08-06T09:53:18.822Z,47.30
2022-08-06T09:55:48.531Z,46.20
2022-08-06T09:58:26.600Z,46.10
2022-08-06T10:00:53.432Z,45.40
2022-08-06T10:04:02.087Z,45.10
2022-08-06T10:06:14.627Z,45.00
2022-08-06T10:08:44.238Z,44.70
2022-08-06T10:11:41.508Z,44.50
2022-08-06T10:14:23.570Z,43.80
2022-08-06T10:17:11.219Z,44.30
2022-08-06T10:19:52.311Z,43.30
2022-08-06T10:22:22.020Z,43.00
2022-08-06T10:24:54.699Z,43.30
2022-08-06T10:27:36.762Z,42.60
2022-08-06T10:30:09.951Z,42.50
2022-08-06T10:32:49.994Z,42.40
2022-08-06T10:35:21.090Z,42.30
2022-08-06T10:37:57.565Z,42.40
2022-08-06T10:40:30.328Z,42.30
2022-08-06T10:43:02.644Z,42.60
2022-08-06T10:45:48.950Z,42.40
2022-08-06T10:48:59.328Z,43.10
2022-08-06T10:51:06.714Z,41.60
2022-08-06T10:54:02.677Z,41.40
2022-08-06T10:56:31.783Z,41.20
2022-08-06T10:59:05.908Z,41.00
2022-08-06T11:01:47.578Z,41.00
2022-08-06T11:04:51.497Z,40.90
2022-08-06T11:08:10.030Z,40.50
2022-08-06T11:11:06.102Z,40.50
2022-08-06T11:14:03.410Z,40.00
2022-08-06T11:16:34.456Z,39.70
2022-08-06T11:19:10.390Z,39.00
2022-08-06T11:21:59.382Z,38.90
2022-08-06T11:24:25.360Z,39.20
2022-08-06T11:26:56.362Z,39.60
2022-08-06T11:29:43.131Z,39.80
2022-08-06T11:32:51.000Z,40.10
2022-08-06T11:35:47.459Z,40.30
2022-08-06T11:38:48.642Z,40.50
2022-08-06T11:41:50.349Z,40.40
2022-08-06T11:44:07.355Z,40.50
2022-08-06T11:46:43.024Z,40.10
2022-08-06T11:49:23.759Z,39.90
2022-08-06T11:52:04.312Z,39.60
2022-08-06T11:54:56.381Z,39.30
2022-08-06T11:57:40.395Z,39.30
2022-08-06T12:00:15.280Z,39.30
2022-08-06T12:02:44.434Z,39.50
2022-08-06T12:05:17.209Z,39.50
2022-08-06T12:07:51.838Z,39.70
2022-08-06T12:10:29.801Z,40.30
2022-08-06T12:12:56.691Z,40.40
2022-08-06T12:15:59.426Z,40.50
2022-08-06T12:18:19.485Z,40.60
2022-08-06T12:20:53.853Z,40.80
2022-08-06T12:23:54.332Z,41.20
2022-08-06T12:26:11.647Z,41.30
2022-08-06T12:28:38.701Z,41.30
2022-08-06T12:31:06.060Z,41.40
2022-08-06T12:33:52.441Z,41.10
2022-08-06T12:36:32.250Z,40.80
2022-08-06T12:39:04.705Z,40.90
2022-08-06T12:41:45.791Z,41.00
2022-08-06T12:44:28.546Z,40.60
2022-08-06T12:47:15.070Z,40.40
2022-08-06T12:49:43.999Z,40.30
2022-08-06T12:52:18.209Z,39.80
2022-08-06T12:54:46.020Z,39.40
2022-08-06T12:57:28.361Z,39.50
2022-08-06T13:00:13.190Z,39.20
2022-08-06T13:02:42.462Z,39.10
2022-08-06T13:05:14.569Z,38.80
2022-08-06T13:07:43.473Z,38.30
2022-08-06T13:10:34.339Z,38.10
2022-08-06T13:14:13.450Z,38.50
2022-08-06T13:16:05.373Z,38.80
2022-08-06T13:18:47.403Z,38.50
2022-08-06T13:21:20.971Z,38.20
2022-08-06T13:23:52.872Z,38.00
2022-08-06T13:26:27.114Z,38.10
2022-08-06T13:30:34.861Z,38.10
2022-08-06T13:32:27.787Z,38.00
2022-08-06T13:35:00.007Z,38.10
2022-08-06T13:37:54.480Z,38.20
2022-08-06T13:40:51.819Z,38.50
2022-08-06T13:43:39.872Z,38.10
2022-08-06T13:46:15.198Z,37.80
2022-08-06T13:48:53.303Z,37.60
2022-08-06T13:51:28.685Z,37.60
2022-08-06T13:53:58.181Z,38.10
2022-08-06T13:56:29.228Z,38.60
2022-08-06T13:59:00.387Z,38.00
2022-08-06T14:01:34.770Z,37.50
2022-08-06T14:04:11.629Z,36.80
2022-08-06T14:06:41.323Z,36.00
2022-08-06T14:09:19.157Z,35.30
2022-08-06T14:11:48.696Z,35.00
2022-08-06T14:14:18.940Z,35.30
2022-08-06T14:16:49.294Z,35.20
2022-08-06T14:20:16.151Z,34.70
2022-08-06T14:22:04.414Z,34.60
2022-08-06T14:24:35.264Z,34.90
2022-08-06T14:27:15.851Z,35.20
2022-08-06T14:30:27.180Z,35.70
2022-08-06T14:32:32.937Z,35.30
2022-08-06T14:35:04.511Z,35.60
2022-08-06T14:37:50.452Z,35.40
2022-08-06T14:40:59.413Z,35.80
2022-08-06T14:43:43.329Z,35.70
2022-08-06T14:46:26.210Z,35.50
2022-08-06T14:48:57.698Z,34.70
2022-08-06T14:51:24.649Z,34.30
2022-08-06T14:54:11.240Z,33.80
2022-08-06T14:56:45.459Z,33.70
2022-08-06T14:59:13.262Z,33.70
2022-08-06T15:01:40.538Z,33.70
2022-08-06T15:04:22.341Z,33.30
2022-08-06T15:06:54.038Z,33.40
2022-08-06T15:10:04.383Z,33.90
2022-08-06T15:12:11.596Z,34.10
2022-08-06T15:14:38.659Z,34.30
2022-08-06T15:17:50.138Z,34.50
2022-08-06T15:19:57.520Z,34.90
2022-08-06T15:22:31.221Z,35.00
2022-08-06T15:25:17.322Z,35.30
2022-08-06T15:27:50.134Z,35.70
2022-08-06T15:30:20.522Z,35.90
2022-08-06T15:32:57.542Z,36.20
2022-08-06T15:35:38.380Z,36.50
2022-08-06T15:38:11.127Z,36.90
2022-08-06T15:40:40.061Z,36.90
2022-08-06T15:43:09.559Z,37.00
2022-08-06T15:45:49.916Z,37.30
2022-08-06T15:48:28.372Z,38.50
2022-08-06T15:51:27.561Z,37.70
2022-08-06T15:53:54.385Z,37.80
2022-08-06T15:56:39.158Z,37.90
2022-08-06T15:59:15.027Z,38.00
2022-08-06T16:02:01.646Z,38.00
2022-08-06T16:04:30.863Z,38.20
2022-08-06T16:06:59.473Z,38.40
2022-08-06T16:09:27.183Z,38.50
2022-08-06T16:11:55.741Z,38.70
2022-08-06T16:14:32.995Z,38.90
2022-08-06T16:17:09.974Z,39.00
2022-08-06T16:19:49.437Z,39.20
2022-08-06T16:22:17.940Z,39.50
2022-08-06T16:24:45.003Z,39.60
2022-08-06T16:27:11.895Z,39.80
2022-08-06T16:29:45.363Z,39.90
2022-08-06T16:32:21.360Z,39.90
2022-08-06T16:34:57.314Z,40.10
2022-08-06T16:37:28.195Z,40.30
2022-08-06T16:40:01.262Z,40.70
2022-08-06T16:42:31.410Z,40.90
2022-08-06T16:45:01.029Z,41.30
2022-08-06T16:48:18.527Z,41.50
2022-08-06T16:50:19.045Z,41.70
2022-08-06T16:54:14.702Z,41.80
2022-08-06T16:55:42.585Z,42.10
2022-08-06T17:01:00.306Z,42.50
2022-08-06T17:03:45.926Z,42.60
2022-08-06T17:06:17.433Z,42.80
2022-08-06T17:08:53.666Z,42.90
2022-08-06T17:11:51.863Z,43.00
2022-08-06T17:14:12.847Z,43.00
2022-08-06T17:16:40.773Z,43.10
2022-08-06T17:19:16.126Z,43.10
2022-08-06T17:21:59.718Z,43.20
2022-08-06T17:24:36.792Z,43.30
2022-08-06T17:27:08.772Z,43.40
2022-08-06T17:32:32.439Z,43.60
2022-08-06T17:35:06.468Z,43.60
2022-08-06T17:37:43.949Z,43.40
2022-08-06T17:40:19.433Z,43.30
2022-08-06T17:42:29.971Z,42.30
2022-08-06T17:42:58.340Z,43.40
2022-08-06T17:45:27.588Z,43.60
2022-08-06T17:47:56.127Z,43.80
2022-08-06T17:50:23.122Z,44.10
2022-08-06T17:53:19.443Z,44.30
2022-08-06T17:55:59.627Z,44.30
2022-08-06T17:58:38.878Z,44.70
2022-08-06T18:01:10.175Z,45.00
2022-08-06T18:03:51.114Z,45.40
2022-08-06T18:06:18.860Z,45.70
2022-08-06T18:08:50.747Z,45.90
2022-08-06T18:11:20.351Z,46.00
2022-08-06T18:13:52.625Z,46.30
2022-08-06T18:16:21.823Z,46.40
2022-08-06T18:18:56.619Z,46.70
2022-08-06T18:21:24.502Z,46.80
2022-08-06T18:23:56.022Z,46.90
2022-08-06T18:26:30.793Z,47.00
2022-08-06T18:29:06.435Z,47.20
2022-08-06T18:31:59.197Z,47.30
2022-08-06T18:34:27.426Z,47.50
2022-08-06T18:36:56.659Z,47.80
2022-08-06T18:40:17.829Z,47.80
2022-08-06T18:42:19.414Z,47.90
2022-08-06T18:44:51.760Z,48.10
2022-08-06T18:47:21.939Z,48.30
2022-08-06T18:49:50.602Z,48.40
2022-08-06T18:52:23.785Z,48.60
2022-08-06T18:54:58.087Z,49.60
2022-08-06T18:57:38.445Z,49.00
2022-08-06T19:00:18.172Z,49.00
2022-08-06T19:02:45.177Z,49.20
2022-08-06T19:05:15.657Z,49.40
2022-08-06T19:07:49.733Z,49.60
2022-08-06T19:10:18.180Z,49.60
2022-08-06T19:12:45.803Z,49.80
2022-08-06T19:15:15.015Z,50.00
2022-08-06T19:18:13.079Z,50.10
2022-08-06T19:20:38.043Z,50.20
2022-08-06T19:23:06.830Z,50.40
2022-08-06T19:25:51.987Z,50.60
2022-08-06T19:28:35.292Z,50.80
2022-08-06T19:31:07.142Z,50.90
2022-08-06T19:33:38.297Z,51.10
2022-08-06T19:36:31.243Z,51.30
2022-08-06T19:38:53.724Z,51.50
2022-08-06T19:42:00.328Z,51.80
2022-08-06T19:44:27.609Z,51.80
2022-08-06T19:46:56.670Z,52.00
2022-08-06T19:49:24.126Z,52.20
2022-08-06T19:52:03.487Z,52.30
2022-08-06T19:54:36.087Z,52.50
2022-08-06T19:57:06.311Z,52.70
2022-08-06T20:00:55.324Z,53.00
2022-08-06T20:02:21.557Z,53.20
2022-08-06T20:04:55.693Z,53.40
2022-08-06T20:07:25.735Z,53.70
2022-08-06T20:10:01.297Z,53.80
2022-08-06T20:12:34.245Z,54.00
2022-08-06T20:15:06.733Z,54.10
2022-08-06T20:17:46.221Z,54.20
2022-08-06T20:20:18.999Z,54.40
2022-08-06T20:22:56.373Z,54.70
2022-08-06T20:25:23.909Z,54.60
2022-08-06T20:29:07.597Z,54.80
2022-08-06T20:30:44.462Z,55.10
2022-08-06T20:33:23.689Z,55.20
2022-08-06T20:35:57.021Z,55.30
2022-08-06T20:38:40.707Z,55.50
2022-08-06T20:41:58.262Z,55.60
2022-08-06T20:44:06.200Z,55.60
2022-08-06T20:49:29.062Z,56.00
2022-08-06T20:52:17.414Z,56.20
2022-08-06T20:54:52.150Z,56.60
2022-08-06T20:57:21.516Z,56.90
2022-08-06T20:59:53.870Z,57.10
2022-08-06T21:02:25.334Z,57.30
2022-08-06T21:05:15.892Z,57.40
2022-08-06T21:07:44.139Z,57.70
2022-08-06T21:10:11.799Z,59.00
2022-08-06T21:12:44.954Z,58.10
2022-08-06T21:15:26.569Z,58.40
2022-08-06T21:18:12.660Z,58.50
2022-08-06T21:20:51.224Z,58.60
2022-08-06T21:23:41.606Z,58.80
2022-08-06T21:26:11.279Z,58.70
2022-08-06T21:28:38.281Z,58.90
2022-08-06T21:31:06.376Z,59.10
2022-08-06T21:33:34.762Z,59.20
2022-08-06T21:36:10.238Z,59.50
2022-08-06T21:38:43.408Z,59.40
2022-08-06T21:41:29.533Z,59.60
2022-08-06T21:44:17.346Z,59.80
2022-08-06T21:46:49.989Z,60.00
2022-08-06T21:49:39.895Z,60.00
2022-08-06T21:52:04.334Z,60.10
2022-08-06T21:54:31.108Z,60.20
2022-08-06T21:56:58.130Z,60.30
2022-08-06T21:59:25.048Z,60.30
2022-08-06T22:02:09.582Z,60.40
2022-08-06T22:04:52.125Z,60.40
2022-08-06T22:07:27.383Z,60.60
2022-08-06T22:10:12.063Z,60.70
2022-08-06T22:13:12.588Z,60.80
2022-08-06T22:15:25.378Z,60.90
2022-08-06T22:18:02.706Z,60.90
2022-08-06T22:20:30.048Z,61.00
2022-08-06T22:22:57.518Z,61.10
2022-08-06T22:25:25.211Z,61.10
2022-08-06T22:27:55.112Z,61.30
2022-08-06T22:30:33.092Z,61.30
2022-08-06T22:33:01.719Z,61.50
2022-08-06T22:35:38.012Z,61.60
2022-08-06T22:38:16.777Z,61.60
2022-08-06T22:40:52.184Z,61.70
2022-08-06T22:43:29.398Z,61.70
2022-08-06T22:46:07.949Z,61.80
2022-08-06T22:48:35.704Z,61.90
2022-08-06T22:51:10.670Z,62.00
2022-08-06T22:54:26.697Z,62.10
2022-08-06T22:56:36.387Z,62.10
2022-08-06T22:59:19.597Z,62.20
2022-08-06T23:02:06.579Z,62.30
2022-08-06T23:04:33.723Z,62.40
2022-08-06T23:07:01.333Z,62.40
2022-08-06T23:09:37.612Z,62.50
2022-08-06T23:12:04.866Z,62.50
2022-08-06T23:14:34.463Z,62.60
2022-08-06T23:17:05.645Z,62.70
2022-08-06T23:19:34.833Z,62.80
2022-08-06T23:22:05.348Z,62.90
2022-08-06T23:24:36.363Z,62.90
2022-08-06T23:27:16.471Z,63.00
2022-08-06T23:30:09.861Z,63.00
2022-08-06T23:32:31.995Z,63.00
2022-08-06T23:35:07.759Z,63.10
2022-08-06T23:37:35.235Z,63.10
2022-08-06T23:40:15.512Z,63.20
2022-08-06T23:42:45.297Z,63.30
2022-08-06T23:45:12.477Z,63.20
2022-08-06T23:47:54.041Z,63.30
2022-08-06T23:50:33.918Z,63.30
2022-08-06T23:53:06.554Z,63.30
2022-08-06T23:55:37.210Z,63.40
2022-08-06T23:58:09.369Z,63.40
